Flight Track Log - Related Links

Times and Time Zones

All times are in EDT time to prevent confusion due to time zone crossing. See the BJS542 flight status page for this flight to view local times or setup timezone preferences in your user account.

Time Position Orientation Groundspeed Altitude Reporting Facility
EDT Latitude Longitude Course Direction KTS MPH feet Rate Location/Type
Mon 11:22:41 AM 42.9358 -72.2161 118° Southeast 467 537 3,900  Level Boston Center
Mon 11:23:41 AM 42.9022 -72.1311 118° Southeast 280 322 7,000 3,200 Climbing Boston Center
Mon 11:24:41 AM 42.9583 -72.0542 45° Northeast 234 269 10,300 2,033 Climbing Boston Center
Mon 11:25:42 AM 43.0394 -72.0139 20° North 268 308 11,100 504 Climbing Boston Center
Mon 11:26:40 AM 43.1372 -71.9622 21° North 323 372 11,300 504 Climbing Boston Center
Mon 11:27:41 AM 43.2183 -71.9244 19° North 342 394 12,100 1,082 Climbing Boston Center
Mon 11:28:42 AM 43.2781 -71.8128 54° Northeast 326 375 13,500 1,513 Climbing Boston Center
Mon 11:29:40 AM 43.2961 -71.6869 79° East 349 402 15,100 1,765 Climbing Boston Center
Mon 11:30:41 AM 43.3158 -71.5269 80° East 371 427 17,000 1,900 Climbing Boston Center
Mon 11:31:40 AM 43.3294 -71.4011 81° East 396 456 18,900 1,966 Climbing Boston Center
Mon 11:32:40 AM 43.3544 -71.2122 80° East 411 473 20,900 2,550 Climbing Boston Center
Mon 11:33:40 AM 43.3756 -71.0519 80° East 429 494 24,000 2,678 Climbing Boston Center
Mon 11:34:41 AM 43.3961 -70.8714 81° East 451 519 26,300 2,132 Climbing Boston Center
Mon 11:35:41 AM 43.4144 -70.6908 82° East 470 541 28,300 1,884 Climbing Boston Center
Mon 11:36:42 AM 43.4364 -70.5044 81° East 485 558 30,100 1,328 Climbing Boston Center
Mon 11:37:43 AM 43.4581 -70.3064 81° East 507 583 31,000 458 Climbing Boston Center
Mon 11:38:40 AM 43.4767 -70.0967 83° East 527 606 31,000  Level Boston Center
Mon 11:39:41 AM 43.4989 -69.8697 82° East 539 620 31,000  Level Boston Center
Mon 11:40:41 AM 43.5192 -69.6597 82° East 546 628 31,000  Level Boston Center
Mon 11:41:41 AM 43.5408 -69.4525 82° East 546 628 31,000  Level Boston Center
Mon 11:42:42 AM 43.5625 -69.2450 82° East 551 634 31,000  Level Boston Center
Mon 11:43:42 AM 43.5836 -69.0375 82° East 546 628 31,000  Level Boston Center
Mon 11:44:40 AM 43.6022 -68.8300 83° East 540 621 31,000  Level Boston Center
Mon 11:45:21 AM 43.6000 -68.6833 91° East 550 633 31,000  Level Moncton Center
Mon 11:46:21 AM 43.6333 -68.4833 77° East 560 644 31,000 -200 Level Moncton Center
Mon 11:47:21 AM 43.6333 -68.2833 90° East 550 633 30,600 -950 Descending Moncton Center
Mon 11:48:21 AM 43.6500 -68.0667 84° East 550 633 29,100 -1,550 Descending Moncton Center
Mon 11:49:21 AM 43.6833 -67.8333 79° East 550 633 27,500 -2,050 Descending Moncton Center
Mon 11:50:21 AM 43.6833 -67.6500 90° East 530 610 25,000 -2,550 Descending Moncton Center
Mon 11:51:21 AM 43.7167 -67.4500 77° East 500 575 22,400 -2,500 Descending Moncton Center
Mon 11:52:21 AM 43.7167 -67.2833 90° East 470 541 20,000 -2,450 Descending Moncton Center
Mon 11:53:21 AM 43.7333 -67.1000 83° East 450 518 17,500 -2,450 Descending Moncton Center
Mon 11:54:21 AM 43.7500 -66.9667 80° East 430 495 15,100 -1,900 Descending Moncton Center
Mon 11:55:21 AM 43.7667 -66.8000 82° East 400 460 13,700 -1,500 Descending Moncton Center
Mon 11:56:21 AM 43.7833 -66.6500 81° East 390 449 12,100 -1,550 Descending Moncton Center
Mon 11:57:21 AM 43.7833 -66.5333 90° East 360 414 10,600 -2,100 Descending Moncton Center
Mon 11:58:21 AM 43.7833 -66.3833 90° East 330 380 7,900 -2,400 Descending Moncton Center
Mon 11:59:21 AM 43.8000 -66.2667 79° East 290 334 5,800 -1,967 Descending Moncton Center
Mon 12:01:21 PM 43.8000 -66.0667 90° East 270 311 2,000 -1,900 Descending Moncton Center
Mon 12:03:00 PM 43.8167 -66.0833 90° East  Level FlightAware Approximate
Mon 12:10:00 PM 43.8269 -66.0881 90° East  Level Estimated
Mon 12:11:00 PM 43.8269 -66.0881 90° East  Level Estimated
Mon 12:12:00 PM 43.8269 -66.0881 90° East  Level Estimated
Mon 12:13:00 PM 43.8269 -66.0881 90° East  Level Estimated
Mon 12:14:00 PM 43.8269 -66.0881 90° East  Level Estimated
Mon 12:15:00 PM 43.8269 -66.0881 90° East  Level Estimated
Mon 12:16:00 PM 43.8269 -66.0881 90° East  Level Estimated
Mon 12:17:00 PM 43.8269 -66.0881 90° East  Level Estimated
Mon 12:18:00 PM 43.8269 -66.0881 90° East  Level Estimated
Mon 12:19:00 PM 43.8269 -66.0881 90° East  Level Estimated
Mon 12:20:00 PM 43.8269 -66.0881 90° East  Level Estimated

Login

Don't have an account? Register now (free) for customized features, flight alerts, and more!